Time;durP1;ratioP1;P1;durP2;ratioP2;P2;SDS_P1;SDS_P2;PMS_P1;PMS_P2;Temp;Humidity;BMP_temperature;BMP_pressure;BME280_temperature;BME280_humidity;BME280_pressure;Samples;Min_cycle;Max_cycle;Signal;HPM_P1;HPM_P2
2021/10/30 00:01:00;;;;;;;0.08;0.08;;;;;;;14.49;67.01;100565.53;5023715;28;20553;-82
2021/10/30 00:03:26;;;;;;;0.10;0.10;;;;;;;14.44;66.69;100562.19;5025397;28;20029;-82
2021/10/30 00:05:53;;;;;;;0.20;0.20;;;;;;;14.40;66.45;100575.66;5023531;28;20057;-82
2021/10/30 00:08:19;;;;;;;0.45;0.45;;;;;;;14.38;66.92;100571.28;5024879;28;20029;-82
2021/10/30 00:10:46;;;;;;;0.13;0.13;;;;;;;14.36;66.65;100571.34;5026614;28;20076;-82
2021/10/30 00:13:13;;;;;;;0.10;0.10;;;;;;;14.34;67.04;100577.69;5025557;28;20086;-82
2021/10/30 00:15:40;;;;;;;0.05;0.05;;;;;;;14.34;67.32;100565.25;5027818;28;20034;-82
2021/10/30 00:18:07;;;;;;;0.10;0.10;;;;;;;14.38;67.42;100564.19;5025127;28;20464;-82
2021/10/30 00:20:33;;;;;;;0.20;0.20;;;;;;;14.42;67.59;100588.91;5027195;28;20060;-82
2021/10/30 00:23:00;;;;;;;0.80;0.80;;;;;;;14.46;68.09;100582.53;5029884;28;20034;-82
2021/10/30 00:25:26;;;;;;;0.30;0.30;;;;;;;14.53;68.05;100569.81;5024189;28;20040;-82
2021/10/30 00:27:52;;;;;;;0.47;0.47;;;;;;;14.57;67.87;100577.63;5030155;28;20053;-82
2021/10/30 00:30:18;;;;;;;0.17;0.17;;;;;;;14.67;68.20;100579.97;5031335;28;20038;-82
2021/10/30 00:32:45;;;;;;;0.10;0.10;;;;;;;14.74;68.08;100581.41;5031661;28;20033;-82
2021/10/30 00:35:11;;;;;;;0.00;0.00;;;;;;;14.77;68.25;100583.13;5035102;28;20472;-82
2021/10/30 00:37:37;;;;;;;0.10;0.10;;;;;;;14.81;68.08;100580.22;5019393;28;20037;-83
2021/10/30 00:40:05;;;;;;;0.20;0.20;;;;;;;14.84;68.30;100572.13;5024071;28;20038;-83
2021/10/30 00:42:31;;;;;;;0.08;0.08;;;;;;;14.93;68.03;100572.63;5024367;28;20026;-83
2021/10/30 00:44:57;;;;;;;8.07;1.02;;;;;;;14.95;67.86;100565.44;5021702;28;20053;-82
2021/10/30 00:47:23;;;;;;;0.20;0.20;;;;;;;14.93;68.25;100569.97;5025420;28;20040;-82
2021/10/30 00:49:50;;;;;;;0.10;0.10;;;;;;;15.03;67.62;100568.66;5022081;28;20034;-82
2021/10/30 00:52:18;;;;;;;0.20;0.20;;;;;;;15.03;67.81;100560.66;5026395;28;20053;-82
2021/10/30 00:54:45;;;;;;;0.10;0.10;;;;;;;15.10;67.48;100564.78;5031304;28;20100;-83
2021/10/30 00:57:12;;;;;;;0.10;0.10;;;;;;;15.11;67.72;100555.84;5025480;28;20018;-83
2021/10/30 00:59:39;;;;;;;0.10;0.10;;;;;;;15.15;67.41;100562.81;5029205;28;20107;-82
2021/10/30 01:02:05;;;;;;;0.20;0.20;;;;;;;15.22;67.19;100558.06;5026104;28;20034;-82
2021/10/30 01:04:31;;;;;;;0.08;0.08;;;;;;;15.22;67.26;100554.53;5027142;28;20112;-82
2021/10/30 01:06:58;;;;;;;0.40;0.40;;;;;;;15.26;66.88;100561.44;5038672;28;20037;-83
2021/10/30 01:09:25;;;;;;;0.10;0.10;;;;;;;15.24;67.05;100560.63;5033047;28;20037;-82
2021/10/30 01:11:52;;;;;;;0.03;0.03;;;;;;;15.33;66.91;100550.44;5031437;28;20113;-82
2021/10/30 01:14:20;;;;;;;0.10;0.10;;;;;;;15.36;66.75;100544.09;5025415;28;20037;-82
2021/10/30 01:16:55;;;;;;;0.20;0.20;;;;;;;15.38;66.76;100547.56;5033235;28;20065;-83
2021/10/30 01:19:21;;;;;;;0.08;0.08;;;;;;;15.34;66.74;100554.84;5030123;28;20040;-82
2021/10/30 01:21:47;;;;;;;1.45;0.45;;;;;;;15.41;66.61;100555.41;5032170;28;20026;-82
2021/10/30 01:24:13;;;;;;;0.40;0.40;;;;;;;15.42;66.61;100548.28;5028478;28;20377;-82
2021/10/30 01:26:39;;;;;;;0.20;0.20;;;;;;;15.47;66.37;100543.63;5025786;28;20026;-82
2021/10/30 01:29:06;;;;;;;0.50;0.50;;;;;;;15.48;66.28;100532.00;5032766;28;20033;-83
2021/10/30 01:31:33;;;;;;;0.75;0.75;;;;;;;15.48;66.42;100532.84;5028718;28;20045;-82
2021/10/30 01:34:04;;;;;;;0.63;0.63;;;;;;;15.52;66.48;100534.44;5026623;28;20030;-83
2021/10/30 01:36:31;;;;;;;0.13;0.13;;;;;;;15.47;66.34;100528.44;5025338;28;20030;-82
2021/10/30 01:38:58;;;;;;;0.85;0.47;;;;;;;15.46;66.26;100521.38;5029761;28;20646;-83
2021/10/30 01:41:25;;;;;;;0.15;0.15;;;;;;;15.48;66.28;100522.16;5032055;28;20039;-82
2021/10/30 01:43:52;;;;;;;1.27;0.43;;;;;;;15.52;66.13;100523.75;5024563;28;20548;-83
2021/10/30 01:46:19;;;;;;;0.17;0.17;;;;;;;15.53;66.11;100509.47;5027229;28;20547;-82
2021/10/30 01:48:46;;;;;;;0.10;0.10;;;;;;;15.56;66.16;100523.63;5029746;28;20827;-82
2021/10/30 01:51:12;;;;;;;0.10;0.10;;;;;;;15.58;65.99;100511.09;5030173;28;20515;-82
2021/10/30 01:53:40;;;;;;;0.10;0.10;;;;;;;15.51;66.04;100500.69;5030873;28;20117;-82
2021/10/30 01:56:06;;;;;;;0.10;0.10;;;;;;;15.59;66.09;100492.31;5025868;28;20021;-82
2021/10/30 01:58:33;;;;;;;2.55;1.75;;;;;;;15.60;66.02;100498.50;5023725;28;20041;-82
2021/10/30 02:01:01;;;;;;;0.38;0.38;;;;;;;15.54;66.36;100497.00;5029173;28;20041;-82
2021/10/30 02:03:29;;;;;;;0.03;0.03;;;;;;;15.58;65.88;100490.56;5034650;28;20018;-83
2021/10/30 02:05:56;;;;;;;0.10;0.10;;;;;;;15.60;66.25;100477.16;5026704;28;20026;-83
2021/10/30 02:08:23;;;;;;;0.17;0.17;;;;;;;15.63;66.14;100469.88;5021719;28;20064;-82
2021/10/30 02:10:49;;;;;;;0.10;0.10;;;;;;;15.66;65.99;100475.06;5026010;28;20041;-82
2021/10/30 02:13:16;;;;;;;0.00;0.00;;;;;;;15.66;65.85;100466.19;5026530;28;20065;-82
2021/10/30 02:15:42;;;;;;;0.38;0.38;;;;;;;15.65;65.87;100468.00;5025556;28;20109;-83
2021/10/30 02:18:09;;;;;;;0.10;0.10;;;;;;;15.64;65.78;100466.25;5027174;28;20026;-83
2021/10/30 02:20:35;;;;;;;0.10;0.10;;;;;;;15.58;65.81;100466.53;5033570;28;20037;-82
2021/10/30 02:23:01;;;;;;;0.00;0.00;;;;;;;15.58;65.78;100463.03;5028335;28;20030;-82
2021/10/30 02:25:27;;;;;;;0.08;0.08;;;;;;;15.52;66.11;100454.34;5024666;28;20029;-82
2021/10/30 02:27:54;;;;;;;0.10;0.10;;;;;;;15.51;65.96;100444.63;5026456;28;20473;-82
2021/10/30 02:30:21;;;;;;;4.25;0.47;;;;;;;15.48;66.06;100436.75;5023563;28;20065;-82
2021/10/30 02:32:48;;;;;;;0.40;0.40;;;;;;;15.47;66.11;100435.00;5029494;28;20087;-82
2021/10/30 02:35:14;;;;;;;1.88;1.08;;;;;;;15.44;66.16;100435.16;5032041;28;20104;-82
2021/10/30 02:37:41;;;;;;;0.20;0.20;;;;;;;15.41;66.06;100434.44;5034144;28;20038;-82
2021/10/30 02:40:08;;;;;;;0.10;0.10;;;;;;;15.40;66.06;100422.88;5044507;28;20036;-82
2021/10/30 02:42:35;;;;;;;0.10;0.10;;;;;;;15.39;66.16;100421.16;5035057;28;20538;-82
2021/10/30 02:45:03;;;;;;;0.20;0.20;;;;;;;15.33;66.21;100414.28;5027894;28;20034;-82
2021/10/30 02:47:30;;;;;;;0.20;0.20;;;;;;;15.28;66.32;100407.47;5027104;28;20104;-82
2021/10/30 02:49:57;;;;;;;0.60;0.60;;;;;;;15.26;66.15;100409.31;5022881;28;20424;-83
2021/10/30 02:52:24;;;;;;;0.10;0.10;;;;;;;15.18;66.36;100402.53;5024934;28;20456;-83
2021/10/30 02:55:06;;;;;;;0.10;0.10;;;;;;;15.22;66.37;100391.72;5022685;28;20290;-82
2021/10/30 02:57:33;;;;;;;0.20;0.20;;;;;;;15.06;67.02;100387.09;5025867;28;20022;-82
2021/10/30 02:59:59;;;;;;;0.10;0.10;;;;;;;15.03;67.05;100387.25;5025061;28;20029;-82
2021/10/30 03:02:26;;;;;;;0.10;0.10;;;;;;;15.01;67.27;100378.44;5024902;28;20503;-82
2021/10/30 03:04:52;;;;;;;0.10;0.10;;;;;;;14.95;67.22;100368.91;5022640;28;20469;-82
2021/10/30 03:07:19;;;;;;;0.00;0.00;;;;;;;14.98;67.16;100359.91;5034341;28;20029;-83
2021/10/30 03:09:49;;;;;;;0.15;0.15;;;;;;;14.96;67.05;100365.28;5028112;28;20029;-82
2021/10/30 03:12:16;;;;;;;0.30;0.30;;;;;;;14.93;67.08;100361.91;5031031;28;20025;-82
2021/10/30 03:14:42;;;;;;;4.30;0.70;;;;;;;14.86;67.21;100348.00;5025878;28;20034;-82
2021/10/30 03:17:09;;;;;;;0.03;0.03;;;;;;;14.86;67.35;100348.84;5024807;28;20059;-82
2021/10/30 03:19:35;;;;;;;0.20;0.20;;;;;;;14.84;67.32;100339.19;5024782;28;20139;-82
2021/10/30 03:22:13;;;;;;;0.15;0.15;;;;;;;14.81;67.65;100332.19;5026775;28;20038;-82
2021/10/30 03:24:48;;;;;;;0.70;0.43;;;;;;;14.88;67.37;100332.78;5027939;28;20017;-82
2021/10/30 03:27:27;;;;;;;8.95;0.93;;;;;;;14.90;67.52;100338.91;5028069;28;20053;-82
2021/10/30 03:29:54;;;;;;;0.30;0.30;;;;;;;14.86;67.56;100340.84;5025379;28;20112;-82
2021/10/30 03:32:20;;;;;;;0.10;0.10;;;;;;;14.91;67.50;100337.13;5021082;28;20042;-82
2021/10/30 03:34:46;;;;;;;0.00;0.00;;;;;;;14.91;67.33;100334.47;5021794;28;20156;-82
2021/10/30 03:37:13;;;;;;;0.10;0.10;;;;;;;14.90;67.54;100328.22;5026451;28;20036;-82
2021/10/30 03:39:39;;;;;;;0.10;0.10;;;;;;;14.91;67.53;100334.47;5024808;28;20034;-82
2021/10/30 03:42:06;;;;;;;0.30;0.30;;;;;;;14.86;67.77;100343.50;5023989;28;20555;-82
2021/10/30 03:44:32;;;;;;;0.10;0.10;;;;;;;14.85;67.80;100341.81;5022674;28;20129;-82
2021/10/30 03:46:58;;;;;;;0.35;0.35;;;;;;;14.83;67.87;100333.00;5028030;28;20033;-82
2021/10/30 03:49:24;;;;;;;0.05;0.05;;;;;;;14.84;67.85;100329.41;5025152;28;20041;-84
2021/10/30 03:51:50;;;;;;;0.10;0.10;;;;;;;14.86;67.81;100311.50;5028556;28;20040;-82
2021/10/30 03:54:17;;;;;;;0.45;0.45;;;;;;;14.87;67.76;100317.72;5027272;28;20167;-82
2021/10/30 03:56:43;;;;;;;0.10;0.10;;;;;;;14.93;67.81;100319.22;5021017;28;20034;-82
2021/10/30 03:59:09;;;;;;;0.32;0.32;;;;;;;14.93;68.01;100316.56;5023982;28;20033;-82
2021/10/30 04:01:35;;;;;;;0.10;0.10;;;;;;;14.91;68.08;100300.63;5028706;28;20034;-82
2021/10/30 04:04:02;;;;;;;0.10;0.10;;;;;;;14.90;68.14;100303.38;5019047;28;20032;-82
2021/10/30 04:06:28;;;;;;;0.52;0.52;;;;;;;14.95;67.94;100294.22;5026899;28;20371;-82
2021/10/30 04:08:55;;;;;;;0.10;0.10;;;;;;;14.99;67.61;100295.81;5028515;28;20451;-83
2021/10/30 04:11:21;;;;;;;0.90;0.90;;;;;;;14.97;67.94;100288.81;5029130;28;20037;-81
2021/10/30 04:13:47;;;;;;;0.32;0.32;;;;;;;14.98;67.93;100285.22;5026316;28;20029;-82
2021/10/30 04:16:16;;;;;;;1.08;1.08;;;;;;;14.99;68.00;100281.59;5029702;28;20079;-82
2021/10/30 04:18:43;;;;;;;0.10;0.10;;;;;;;14.93;68.46;100280.09;5033098;28;20037;-82
2021/10/30 04:21:11;;;;;;;0.10;0.10;;;;;;;15.04;68.13;100276.91;5023316;28;20033;-82
2021/10/30 04:23:37;;;;;;;0.10;0.10;;;;;;;15.09;67.97;100282.91;5033151;28;20087;-82
2021/10/30 04:26:05;;;;;;;0.30;0.30;;;;;;;15.07;68.20;100276.75;5021959;28;20060;-82
2021/10/30 04:28:31;;;;;;;0.10;0.10;;;;;;;15.13;68.07;100270.28;5027870;28;20438;-82
2021/10/30 04:31:03;;;;;;;0.10;0.10;;;;;;;15.14;68.24;100266.66;5028369;28;20033;-82
2021/10/30 04:33:29;;;;;;;0.10;0.10;;;;;;;15.15;68.43;100271.06;5035736;28;20040;-82
2021/10/30 04:35:55;;;;;;;0.75;0.75;;;;;;;15.22;68.09;100264.50;5031978;28;20686;-82
2021/10/30 04:38:22;;;;;;;0.65;0.65;;;;;;;15.23;67.87;100265.34;5034808;28;20120;-81
2021/10/30 04:40:49;;;;;;;0.88;0.47;;;;;;;15.28;67.72;100263.34;5035968;28;20033;-81
2021/10/30 04:43:15;;;;;;;0.20;0.20;;;;;;;15.26;68.01;100255.38;5037437;28;20033;-81
2021/10/30 04:45:43;;;;;;;0.10;0.10;;;;;;;15.26;68.23;100257.19;5035357;28;20025;-82
2021/10/30 04:48:09;;;;;;;0.05;0.05;;;;;;;15.18;68.23;100242.41;5024459;28;20062;-81
2021/10/30 04:50:36;;;;;;;0.00;0.00;;;;;;;15.18;68.87;100242.41;5029820;28;20079;-81
2021/10/30 04:53:02;;;;;;;0.10;0.10;;;;;;;15.23;68.73;100238.66;5040019;28;20041;-81
2021/10/30 04:55:28;;;;;;;0.28;0.28;;;;;;;15.23;68.69;100244.00;5030052;28;20029;-81
2021/10/30 04:57:55;;;;;;;0.10;0.10;;;;;;;15.22;68.82;100247.63;5033292;28;20489;-81
2021/10/30 05:00:21;;;;;;;0.20;0.20;;;;;;;15.25;68.57;100242.13;5031908;28;20492;-81
2021/10/30 05:02:47;;;;;;;0.10;0.10;;;;;;;15.25;68.58;100236.78;5036504;28;20079;-81
2021/10/30 05:05:14;;;;;;;0.95;0.60;;;;;;;15.28;68.42;100236.66;5043588;28;20038;-82
2021/10/30 05:07:40;;;;;;;0.10;0.10;;;;;;;15.24;68.58;100229.72;5035359;28;20075;-81
2021/10/30 05:10:07;;;;;;;0.10;0.10;;;;;;;15.18;69.18;100231.75;5035643;28;20032;-81
2021/10/30 05:12:33;;;;;;;0.20;0.20;;;;;;;15.20;68.95;100234.34;5035055;28;20554;-81
2021/10/30 05:14:59;;;;;;;0.08;0.08;;;;;;;15.25;69.07;100234.13;5024361;28;20034;-81
2021/10/30 05:17:25;;;;;;;0.08;0.08;;;;;;;15.23;68.93;100228.88;5022139;28;20385;-82
2021/10/30 05:19:52;;;;;;;0.10;0.10;;;;;;;15.26;68.94;100218.03;5029107;28;20077;-81
2021/10/30 05:22:18;;;;;;;0.10;0.10;;;;;;;15.30;68.71;100218.72;5028707;28;20080;-81
2021/10/30 05:24:44;;;;;;;0.10;0.10;;;;;;;15.27;69.20;100221.56;5022573;28;20034;-81
2021/10/30 05:27:11;;;;;;;2.92;0.47;;;;;;;15.26;69.26;100222.50;5021753;28;20095;-81
2021/10/30 05:29:37;;;;;;;0.10;0.10;;;;;;;15.29;68.90;100217.88;5027749;28;20096;-82
2021/10/30 05:32:03;;;;;;;0.10;0.10;;;;;;;15.24;69.22;100208.38;5033341;28;20041;-83
2021/10/30 05:34:29;;;;;;;0.10;0.10;;;;;;;15.21;69.40;100198.72;5023793;28;20040;-83
2021/10/30 05:36:56;;;;;;;2.50;0.52;;;;;;;15.23;68.93;100201.28;5026322;28;20408;-82
2021/10/30 05:39:23;;;;;;;0.47;0.47;;;;;;;15.16;69.53;100188.25;5022572;28;20053;-83
2021/10/30 05:41:49;;;;;;;0.38;0.38;;;;;;;15.15;69.68;100189.22;5025822;28;20120;-83
2021/10/30 05:44:15;;;;;;;0.10;0.10;;;;;;;15.14;69.69;100184.81;5024545;28;20102;-82
2021/10/30 05:46:42;;;;;;;0.85;0.85;;;;;;;15.19;69.29;100171.25;5021082;28;20044;-83
2021/10/30 05:49:10;;;;;;;0.05;0.05;;;;;;;15.15;69.64;100167.88;5029839;28;20258;-83
2021/10/30 05:51:50;;;;;;;1.13;1.13;;;;;;;15.19;69.61;100169.44;5032029;28;20033;-83
2021/10/30 05:54:17;;;;;;;0.20;0.20;;;;;;;15.17;69.56;100162.44;5026981;28;20473;-83
2021/10/30 05:56:43;;;;;;;0.10;0.10;;;;;;;15.16;69.74;100174.91;5032705;28;20029;-83
2021/10/30 05:59:09;;;;;;;0.10;0.10;;;;;;;15.18;69.52;100161.53;5026808;28;20495;-83
2021/10/30 06:01:35;;;;;;;0.10;0.10;;;;;;;15.20;69.54;100164.94;5030251;28;20468;-83
2021/10/30 06:04:01;;;;;;;0.10;0.10;;;;;;;15.13;69.88;100169.75;5030982;28;20045;-83
2021/10/30 06:06:27;;;;;;;0.20;0.20;;;;;;;15.19;69.51;100163.25;5029212;28;20600;-83
2021/10/30 06:08:53;;;;;;;0.10;0.10;;;;;;;15.18;69.75;100167.69;5026222;28;20079;-83
2021/10/30 06:11:20;;;;;;;0.10;0.10;;;;;;;15.24;69.29;100161.22;5028906;28;20044;-83
2021/10/30 06:13:46;;;;;;;0.10;0.10;;;;;;;15.19;69.74;100158.75;5029076;28;20026;-83
2021/10/30 06:16:12;;;;;;;0.10;0.10;;;;;;;15.15;69.64;100159.88;5030441;28;20029;-83
2021/10/30 06:18:38;;;;;;;1.15;0.77;;;;;;;15.17;69.80;100154.44;5029609;28;20162;-84
2021/10/30 06:21:04;;;;;;;0.30;0.30;;;;;;;15.14;69.98;100155.47;5030877;28;20048;-83
2021/10/30 06:23:30;;;;;;;0.00;0.00;;;;;;;15.11;70.10;100165.44;5028439;28;20116;-84
2021/10/30 06:25:56;;;;;;;0.10;0.10;;;;;;;15.00;70.34;100161.50;5031794;28;20432;-84
2021/10/30 06:28:22;;;;;;;0.88;0.38;;;;;;;15.11;70.00;100150.25;5029985;28;20488;-83
2021/10/30 06:30:49;;;;;;;0.30;0.30;;;;;;;15.15;69.72;100150.97;5028683;28;20045;-84
2021/10/30 06:33:15;;;;;;;0.15;0.15;;;;;;;15.13;69.91;100159.06;5024726;28;20033;-83
2021/10/30 06:35:41;;;;;;;0.52;0.52;;;;;;;15.06;70.18;100157.63;5023835;28;20034;-83
2021/10/30 06:38:07;;;;;;;0.10;0.10;;;;;;;15.09;70.09;100162.84;5021406;28;20034;-82
2021/10/30 06:40:33;;;;;;;0.75;0.68;;;;;;;15.14;70.04;100150.13;5022971;28;20056;-83
2021/10/30 06:43:11;;;;;;;0.08;0.08;;;;;;;15.11;70.11;100155.59;5019674;28;20041;-84
2021/10/30 06:45:37;;;;;;;0.10;0.10;;;;;;;15.00;70.20;100147.28;5023085;28;20120;-83
2021/10/30 06:48:04;;;;;;;0.90;0.90;;;;;;;15.11;69.82;100144.94;5029455;28;20048;-84
2021/10/30 06:50:31;;;;;;;0.30;0.30;;;;;;;15.20;69.57;100143.59;5029791;28;20103;-83
2021/10/30 06:52:57;;;;;;;0.13;0.13;;;;;;;15.10;70.05;100142.34;5030983;28;20105;-83
2021/10/30 06:55:24;;;;;;;0.10;0.10;;;;;;;15.18;69.91;100145.50;5024615;28;20408;-84
2021/10/30 06:57:51;;;;;;;0.00;0.00;;;;;;;15.11;70.07;100138.75;5021428;28;20088;-84
2021/10/30 07:00:18;;;;;;;3.50;0.63;;;;;;;15.15;69.92;100137.63;5018970;28;20041;-83
2021/10/30 07:02:47;;;;;;;1.00;1.00;;;;;;;15.16;69.74;100131.38;5024234;28;20064;-84
2021/10/30 07:05:13;;;;;;;0.20;0.20;;;;;;;15.14;70.07;100136.78;5033395;28;20533;-84
2021/10/30 07:07:39;;;;;;;0.00;0.00;;;;;;;15.10;70.04;100127.19;5029303;28;20057;-81
2021/10/30 07:10:06;;;;;;;0.00;0.00;;;;;;;15.09;70.17;100113.94;5027602;28;20087;-81
2021/10/30 07:12:35;;;;;;;0.10;0.10;;;;;;;15.18;69.89;100130.34;5030363;28;20060;-82
2021/10/30 07:15:02;;;;;;;0.20;0.20;;;;;;;15.16;69.92;100120.69;5024978;28;20036;-81
2021/10/30 07:17:28;;;;;;;0.10;0.10;;;;;;;15.12;69.97;100133.31;5021072;28;20034;-82
2021/10/30 07:19:54;;;;;;;0.80;0.80;;;;;;;15.14;69.98;100125.22;5019992;28;20117;-82
2021/10/30 07:22:21;;;;;;;0.20;0.20;;;;;;;15.04;70.23;100114.16;5027907;28;20553;-81
2021/10/30 07:24:47;;;;;;;0.77;0.77;;;;;;;15.15;69.98;100111.84;5035474;28;20498;-81
2021/10/30 07:27:16;;;;;;;0.50;0.50;;;;;;;15.06;70.36;100111.44;5030586;28;20037;-82
2021/10/30 07:29:46;;;;;;;0.73;0.73;;;;;;;15.06;70.20;100112.28;5031436;28;20025;-81
2021/10/30 07:32:13;;;;;;;0.30;0.30;;;;;;;15.00;70.53;100115.25;5029991;28;20121;-81
2021/10/30 07:34:40;;;;;;;0.17;0.17;;;;;;;15.04;70.47;100112.38;5029342;28;20022;-80
2021/10/30 07:37:06;;;;;;;0.30;0.25;;;;;;;15.08;70.37;100089.06;5030811;28;20030;-81
2021/10/30 07:39:34;;;;;;;0.10;0.10;;;;;;;15.07;70.29;100097.16;5030369;28;20124;-81
2021/10/30 07:42:01;;;;;;;0.10;0.10;;;;;;;15.06;70.43;100098.94;5027229;28;21312;-79
2021/10/30 07:44:27;;;;;;;0.20;0.20;;;;;;;15.11;70.44;100091.56;5031769;28;20056;-80
2021/10/30 07:46:54;;;;;;;1.55;1.55;;;;;;;15.16;70.65;100089.53;5032279;28;20448;-82
2021/10/30 07:49:21;;;;;;;10.27;5.75;;;;;;;15.08;70.50;100086.41;5032467;28;20029;-81
2021/10/30 07:51:47;;;;;;;5.55;3.20;;;;;;;15.14;70.14;100078.09;5032018;28;20040;-81
2021/10/30 07:54:13;;;;;;;1.27;1.27;;;;;;;15.02;70.67;100087.56;5027559;28;20028;-82
2021/10/30 07:56:39;;;;;;;7.68;0.90;;;;;;;15.18;70.23;100071.66;5031602;28;20061;-82
2021/10/30 07:59:05;;;;;;;0.20;0.20;;;;;;;15.20;70.04;100075.09;5025208;28;20128;-82
2021/10/30 08:01:31;;;;;;;0.20;0.20;;;;;;;15.24;70.13;100074.94;5021973;28;20061;-82
2021/10/30 08:03:57;;;;;;;0.00;0.00;;;;;;;15.17;70.29;100074.41;5025654;28;20030;-81
2021/10/30 08:06:23;;;;;;;0.10;0.10;;;;;;;15.23;69.94;100083.88;5025130;28;20030;-81
2021/10/30 08:08:49;;;;;;;0.35;0.35;;;;;;;15.14;70.39;100072.75;5024502;28;20519;-81
2021/10/30 08:11:15;;;;;;;1.70;1.60;;;;;;;15.16;70.46;100073.50;5028991;28;20021;-81
2021/10/30 08:13:42;;;;;;;0.22;0.22;;;;;;;15.32;70.21;100064.72;5031454;28;20392;-81
2021/10/30 08:16:08;;;;;;;0.10;0.10;;;;;;;15.24;70.24;100058.91;5031836;28;20024;-81
2021/10/30 08:18:34;;;;;;;0.10;0.10;;;;;;;15.28;70.46;100063.19;5030226;28;20026;-81
2021/10/30 08:21:00;;;;;;;1.85;0.43;;;;;;;15.35;70.14;100061.88;5031896;28;20113;-81
2021/10/30 08:23:26;;;;;;;2.40;1.00;;;;;;;15.40;69.94;100069.66;5031416;28;20033;-81
2021/10/30 08:25:52;;;;;;;0.38;0.38;;;;;;;15.33;70.14;100061.13;5030760;28;20030;-82
2021/10/30 08:28:19;;;;;;;0.30;0.30;;;;;;;15.41;70.08;100069.56;5031608;28;20064;-81
2021/10/30 08:30:46;;;;;;;0.80;0.75;;;;;;;15.43;69.96;100066.84;5031651;28;20033;-82
2021/10/30 08:33:13;;;;;;;0.10;0.10;;;;;;;15.37;70.13;100063.53;5030286;28;20112;-81
2021/10/30 08:35:40;;;;;;;0.10;0.10;;;;;;;15.41;70.03;100064.22;5031104;28;20021;-82
2021/10/30 08:38:09;;;;;;;0.10;0.10;;;;;;;15.46;69.80;100053.31;5031714;28;20032;-82
2021/10/30 08:40:37;;;;;;;5.07;3.28;;;;;;;15.52;69.72;100075.19;5032016;28;20369;-81
2021/10/30 08:43:04;;;;;;;2.67;2.47;;;;;;;15.39;69.91;100058.13;5030731;28;20057;-80
2021/10/30 08:45:32;;;;;;;0.30;0.30;;;;;;;15.37;70.08;100066.19;5031752;28;20061;-83
2021/10/30 08:48:02;;;;;;;1.13;1.13;;;;;;;15.47;70.23;100066.59;5032048;28;20444;-82
2021/10/30 08:50:28;;;;;;;1.08;1.08;;;;;;;15.40;69.96;100064.31;5032005;28;20144;-81
2021/10/30 08:52:55;;;;;;;0.52;0.47;;;;;;;15.45;69.79;100063.16;5032107;28;20037;-81
2021/10/30 08:55:21;;;;;;;0.65;0.65;;;;;;;15.43;69.79;100064.19;5031516;28;20479;-81
2021/10/30 08:57:47;;;;;;;0.00;0.00;;;;;;;15.38;70.07;100061.75;5031973;28;20463;-82
2021/10/30 09:00:19;;;;;;;1.08;1.08;;;;;;;15.46;69.77;100054.16;5031788;28;20127;-82
2021/10/30 09:02:52;;;;;;;;;;;;;;;15.64;69.33;100056.84;5032507;28;20129;-82
2021/10/30 09:05:22;;;;;;;0.10;0.10;;;;;;;15.47;69.70;100049.72;5031817;28;19909;-83
2021/10/30 09:07:51;;;;;;;0.30;0.30;;;;;;;15.47;69.71;100047.91;5034890;28;20446;-82
2021/10/30 09:10:21;;;;;;;0.13;0.13;;;;;;;15.44;70.08;100060.53;5035485;28;20120;-82
2021/10/30 09:12:51;;;;;;;0.30;0.30;;;;;;;15.38;70.38;100061.75;5035099;28;20105;-83
2021/10/30 09:15:29;;;;;;;0.10;0.10;;;;;;;15.31;70.57;100045.16;5035036;28;20049;-82
2021/10/30 09:17:55;;;;;;;0.10;0.10;;;;;;;15.44;70.34;100040.06;5034778;28;20076;-82
2021/10/30 09:20:30;;;;;;;0.10;0.10;;;;;;;15.46;70.32;100038.16;5034213;28;20121;-82
2021/10/30 09:22:57;;;;;;;0.10;0.10;;;;;;;15.40;70.38;100041.16;5034670;28;20095;-82
2021/10/30 09:25:23;;;;;;;0.20;0.20;;;;;;;15.43;70.32;100033.00;5034198;28;20100;-82
2021/10/30 09:28:02;;;;;;;0.17;0.17;;;;;;;15.43;70.49;100033.00;5031925;28;20029;-82
2021/10/30 09:30:32;;;;;;;0.10;0.10;;;;;;;15.35;70.72;100029.84;5032489;28;20025;-81
2021/10/30 09:33:05;;;;;;;0.15;0.15;;;;;;;15.42;70.62;100030.41;5034459;28;20102;-82
2021/10/30 09:38:31;;;;;;;0.20;0.20;;;;;;;15.55;70.33;100030.59;5118668;27;20416;-81
2021/10/30 09:41:02;;;;;;;1.20;0.43;;;;;;;15.48;70.47;100043.44;5106413;28;20113;-81
2021/10/30 09:43:29;;;;;;;0.10;0.10;;;;;;;15.40;70.71;100032.28;5091515;28;20035;-82
2021/10/30 09:46:03;;;;;;;0.10;0.10;;;;;;;15.46;70.48;100022.13;5100321;28;20038;-81
2021/10/30 09:48:32;;;;;;;0.03;0.03;;;;;;;15.42;70.76;100028.59;5109656;28;20111;-80
2021/10/30 09:51:02;;;;;;;0.10;0.10;;;;;;;15.46;70.69;100022.13;5110327;28;20519;-81
2021/10/30 09:56:09;;;;;;;0.83;0.83;;;;;;;15.57;70.76;100015.38;5024522;28;1229622;-81
2021/10/30 09:58:41;;;;;;;0.17;0.10;;;;;;;15.60;70.66;100020.53;5052122;28;20029;-82
2021/10/30 10:01:10;;;;;;;1.48;1.38;;;;;;;15.47;71.08;100018.53;5035812;28;20038;-82
2021/10/30 10:03:38;;;;;;;0.20;0.20;;;;;;;15.53;70.74;100017.34;5032233;28;20053;-82
2021/10/30 10:06:08;;;;;;;0.20;0.20;;;;;;;15.62;70.51;100016.84;5032004;28;20033;-82
2021/10/30 10:08:37;;;;;;;0.10;0.10;;;;;;;15.52;70.90;100019.13;5033211;28;20046;-81
2021/10/30 10:11:19;;;;;;;0.10;0.10;;;;;;;15.58;70.75;100007.28;5031347;28;20061;-81
2021/10/30 10:13:48;;;;;;;0.15;0.15;;;;;;;15.56;70.83;100016.31;5032567;28;20389;-81
2021/10/30 10:16:19;;;;;;;0.20;0.20;;;;;;;15.60;70.63;100012.53;5031048;28;20060;-82
2021/10/30 10:18:46;;;;;;;0.03;0.03;;;;;;;15.65;70.72;100006.00;5031039;28;20029;-82
2021/10/30 10:21:15;;;;;;;0.10;0.10;;;;;;;15.76;70.03;100012.56;5030011;28;20029;-82
2021/10/30 10:23:43;;;;;;;0.20;0.20;;;;;;;15.69;70.22;100009.38;5029729;28;20022;-82
2021/10/30 10:26:10;;;;;;;2.08;1.60;;;;;;;15.77;70.51;100004.44;5022300;28;20129;-82
2021/10/30 10:28:38;;;;;;;0.10;0.10;;;;;;;15.72;70.57;100009.19;5011717;28;20401;-82
2021/10/30 10:31:25;;;;;;;0.22;0.22;;;;;;;15.83;70.25;100008.66;5012506;28;20030;-81
2021/10/30 10:39:57;;;;;;;0.10;0.10;;;;;;;15.93;70.02;100003.66;5092894;27;20405;-82
2021/10/30 10:42:41;;;;;;;0.03;0.03;;;;;;;15.88;70.10;99995.03;5085076;28;20430;-81
2021/10/30 10:47:55;;;;;;;0.10;0.10;;;;;;;15.94;70.23;99984.84;5070140;27;20402;-78
2021/10/30 10:50:28;;;;;;;0.10;0.10;;;;;;;16.09;70.20;99975.13;5053260;28;20037;-77
2021/10/30 10:53:15;;;;;;;0.10;0.10;;;;;;;16.16;70.18;99976.50;5056464;28;20020;-85
2021/10/30 10:58:29;;;;;;;0.20;0.20;;;;;;;16.16;69.98;99962.25;5128026;27;20923;-85
2021/10/30 11:01:13;;;;;;;4.85;2.20;;;;;;;16.18;70.03;99961.22;5103481;27;20032;-84
2021/10/30 11:03:46;;;;;;;0.15;0.15;;;;;;;16.23;69.78;99962.78;5104749;28;20016;-85
2021/10/30 11:06:13;;;;;;;0.10;0.10;;;;;;;16.36;69.66;99962.91;5100331;28;20031;-81
2021/10/30 11:08:39;;;;;;;0.38;0.38;;;;;;;16.26;69.65;99957.25;5112789;28;20088;-85
2021/10/30 11:13:53;;;;;;;2.00;0.73;;;;;;;16.37;69.68;99954.81;5073859;28;20777;-85
2021/10/30 11:16:28;;;;;;;0.10;0.10;;;;;;;16.42;69.69;99947.38;5068806;28;20399;-86
2021/10/30 11:22:11;;;;;;;0.10;0.10;;;;;;;16.42;69.51;99958.06;5075984;28;20394;-87
2021/10/30 11:24:49;;;;;;;0.10;0.10;;;;;;;16.48;69.36;99947.00;5066939;28;20487;-87
2021/10/30 11:27:15;;;;;;;0.15;0.15;;;;;;;16.44;69.43;99945.47;5067785;28;20752;-86
2021/10/30 11:29:50;;;;;;;0.10;0.10;;;;;;;16.37;69.35;99944.09;5048998;28;20034;-85
2021/10/30 11:32:18;;;;;;;0.10;0.10;;;;;;;16.38;69.58;99948.50;5038663;28;20057;-83
2021/10/30 11:34:53;;;;;;;0.47;0.47;;;;;;;16.33;69.14;99943.44;5030986;28;20416;-82
2021/10/30 11:37:19;;;;;;;0.77;0.77;;;;;;;16.46;69.46;99942.72;5030989;28;20033;-83
2021/10/30 11:39:47;;;;;;;0.40;0.40;;;;;;;16.48;69.12;99941.66;5030692;28;20022;-83
2021/10/30 11:42:13;;;;;;;0.10;0.10;;;;;;;16.54;69.25;99940.44;5032370;28;20029;-83
2021/10/30 11:44:56;;;;;;;0.10;0.10;;;;;;;16.51;68.89;99927.28;5034329;28;20013;-83
2021/10/30 11:47:24;;;;;;;;;;;;;;;16.63;68.56;99917.66;5032917;28;20036;-82
2021/10/30 11:49:52;;;;;;;0.10;0.10;;;;;;;16.44;69.03;99926.75;5032892;28;19924;-82
2021/10/30 11:52:18;;;;;;;0.10;0.10;;;;;;;16.47;68.71;99931.06;5031117;28;20072;-81